sensor_id;sensor_type;location;lat;lon;timestamp;P1;durP1;ratioP1;P2;durP2;ratioP2
49722;SDS011;43484;43.608;1.458;2023-06-14T00:00:44;3.65;;;3.35;;
49722;SDS011;43484;43.608;1.458;2023-06-14T00:03:11;4.72;;;4.28;;
49722;SDS011;43484;43.608;1.458;2023-06-14T00:05:38;6.53;;;4.10;;
49722;SDS011;43484;43.608;1.458;2023-06-14T00:08:09;5.18;;;4.65;;
49722;SDS011;43484;43.608;1.458;2023-06-14T00:10:36;6.53;;;4.95;;
49722;SDS011;43484;43.608;1.458;2023-06-14T00:13:03;5.65;;;4.13;;
49722;SDS011;43484;43.608;1.458;2023-06-14T00:15:31;5.07;;;3.65;;
49722;SDS011;43484;43.608;1.458;2023-06-14T00:17:57;4.65;;;3.08;;
49722;SDS011;43484;43.608;1.458;2023-06-14T00:20:27;4.18;;;3.70;;
49722;SDS011;43484;43.608;1.458;2023-06-14T00:22:55;4.97;;;4.22;;
49722;SDS011;43484;43.608;1.458;2023-06-14T00:25:24;5.30;;;4.00;;
49722;SDS011;43484;43.608;1.458;2023-06-14T00:27:56;3.75;;;3.55;;
49722;SDS011;43484;43.608;1.458;2023-06-14T00:30:24;4.07;;;3.78;;
49722;SDS011;43484;43.608;1.458;2023-06-14T00:32:51;5.63;;;4.47;;
49722;SDS011;43484;43.608;1.458;2023-06-14T00:35:18;6.75;;;4.85;;
49722;SDS011;43484;43.608;1.458;2023-06-14T00:37:45;4.00;;;3.70;;
49722;SDS011;43484;43.608;1.458;2023-06-14T00:40:11;4.57;;;4.18;;
49722;SDS011;43484;43.608;1.458;2023-06-14T00:42:39;5.22;;;4.70;;
49722;SDS011;43484;43.608;1.458;2023-06-14T00:45:05;8.27;;;4.90;;
49722;SDS011;43484;43.608;1.458;2023-06-14T00:47:32;4.90;;;4.28;;
49722;SDS011;43484;43.608;1.458;2023-06-14T00:50:01;5.05;;;4.63;;
49722;SDS011;43484;43.608;1.458;2023-06-14T00:52:28;4.93;;;4.20;;
49722;SDS011;43484;43.608;1.458;2023-06-14T00:54:55;5.32;;;4.90;;
49722;SDS011;43484;43.608;1.458;2023-06-14T00:57:22;4.93;;;4.40;;
49722;SDS011;43484;43.608;1.458;2023-06-14T00:59:50;5.80;;;4.60;;
49722;SDS011;43484;43.608;1.458;2023-06-14T01:02:17;6.43;;;5.70;;
49722;SDS011;43484;43.608;1.458;2023-06-14T01:04:46;6.53;;;5.43;;
49722;SDS011;43484;43.608;1.458;2023-06-14T01:12:52;7.70;;;6.28;;
49722;SDS011;43484;43.608;1.458;2023-06-14T01:15:23;6.10;;;5.05;;
49722;SDS011;43484;43.608;1.458;2023-06-14T01:17:50;8.65;;;6.50;;
49722;SDS011;43484;43.608;1.458;2023-06-14T01:20:20;8.43;;;6.10;;
49722;SDS011;43484;43.608;1.458;2023-06-14T01:22:51;8.40;;;7.25;;
49722;SDS011;43484;43.608;1.458;2023-06-14T01:25:21;11.82;;;8.57;;
49722;SDS011;43484;43.608;1.458;2023-06-14T01:28:01;13.93;;;9.27;;
49722;SDS011;43484;43.608;1.458;2023-06-14T01:30:30;11.80;;;9.20;;
49722;SDS011;43484;43.608;1.458;2023-06-14T01:32:59;10.27;;;7.97;;
49722;SDS011;43484;43.608;1.458;2023-06-14T01:35:27;10.85;;;8.30;;
49722;SDS011;43484;43.608;1.458;2023-06-14T01:37:54;8.32;;;6.93;;
49722;SDS011;43484;43.608;1.458;2023-06-14T01:40:21;13.40;;;6.53;;
49722;SDS011;43484;43.608;1.458;2023-06-14T01:42:50;8.13;;;6.43;;
49722;SDS011;43484;43.608;1.458;2023-06-14T01:45:18;8.98;;;6.78;;
49722;SDS011;43484;43.608;1.458;2023-06-14T01:47:46;11.38;;;6.60;;
49722;SDS011;43484;43.608;1.458;2023-06-14T01:50:13;10.38;;;6.93;;
49722;SDS011;43484;43.608;1.458;2023-06-14T01:52:40;14.13;;;7.50;;
49722;SDS011;43484;43.608;1.458;2023-06-14T01:55:07;9.55;;;6.60;;
49722;SDS011;43484;43.608;1.458;2023-06-14T01:57:35;9.00;;;6.40;;
49722;SDS011;43484;43.608;1.458;2023-06-14T02:00:03;7.40;;;6.20;;
49722;SDS011;43484;43.608;1.458;2023-06-14T02:02:32;7.78;;;6.97;;
49722;SDS011;43484;43.608;1.458;2023-06-14T02:04:59;10.32;;;6.18;;
49722;SDS011;43484;43.608;1.458;2023-06-14T02:07:26;14.07;;;6.68;;
49722;SDS011;43484;43.608;1.458;2023-06-14T02:09:52;11.20;;;6.40;;
49722;SDS011;43484;43.608;1.458;2023-06-14T02:12:19;10.32;;;7.18;;
49722;SDS011;43484;43.608;1.458;2023-06-14T02:14:46;10.07;;;5.85;;
49722;SDS011;43484;43.608;1.458;2023-06-14T02:17:12;8.77;;;6.88;;
49722;SDS011;43484;43.608;1.458;2023-06-14T02:19:39;11.55;;;6.20;;
49722;SDS011;43484;43.608;1.458;2023-06-14T02:22:06;6.47;;;5.75;;
49722;SDS011;43484;43.608;1.458;2023-06-14T02:24:33;9.68;;;6.30;;
49722;SDS011;43484;43.608;1.458;2023-06-14T02:26:59;10.50;;;6.38;;
49722;SDS011;43484;43.608;1.458;2023-06-14T02:29:26;9.32;;;6.55;;
49722;SDS011;43484;43.608;1.458;2023-06-14T02:31:53;10.95;;;6.43;;
49722;SDS011;43484;43.608;1.458;2023-06-14T02:34:20;7.53;;;5.88;;
49722;SDS011;43484;43.608;1.458;2023-06-14T02:36:48;11.95;;;7.05;;
49722;SDS011;43484;43.608;1.458;2023-06-14T02:39:14;8.15;;;6.75;;
49722;SDS011;43484;43.608;1.458;2023-06-14T02:41:41;6.10;;;5.60;;
49722;SDS011;43484;43.608;1.458;2023-06-14T02:44:09;8.75;;;5.38;;
49722;SDS011;43484;43.608;1.458;2023-06-14T02:46:38;7.85;;;5.90;;
49722;SDS011;43484;43.608;1.458;2023-06-14T02:49:04;16.38;;;5.95;;
49722;SDS011;43484;43.608;1.458;2023-06-14T02:51:31;9.13;;;5.57;;
49722;SDS011;43484;43.608;1.458;2023-06-14T02:53:58;14.48;;;5.90;;
49722;SDS011;43484;43.608;1.458;2023-06-14T02:56:25;9.30;;;5.45;;
49722;SDS011;43484;43.608;1.458;2023-06-14T02:58:52;11.45;;;5.68;;
49722;SDS011;43484;43.608;1.458;2023-06-14T03:01:19;10.80;;;6.07;;
49722;SDS011;43484;43.608;1.458;2023-06-14T03:03:47;19.67;;;5.78;;
49722;SDS011;43484;43.608;1.458;2023-06-14T03:06:14;8.48;;;5.18;;
49722;SDS011;43484;43.608;1.458;2023-06-14T03:08:43;10.43;;;5.18;;
49722;SDS011;43484;43.608;1.458;2023-06-14T03:11:10;17.20;;;6.15;;
49722;SDS011;43484;43.608;1.458;2023-06-14T03:13:36;8.13;;;4.82;;
49722;SDS011;43484;43.608;1.458;2023-06-14T03:16:05;12.60;;;6.00;;
49722;SDS011;43484;43.608;1.458;2023-06-14T03:18:31;5.65;;;4.85;;
49722;SDS011;43484;43.608;1.458;2023-06-14T03:21:02;8.95;;;4.85;;
49722;SDS011;43484;43.608;1.458;2023-06-14T03:23:29;9.55;;;5.40;;
49722;SDS011;43484;43.608;1.458;2023-06-14T03:25:56;11.45;;;4.80;;
49722;SDS011;43484;43.608;1.458;2023-06-14T03:28:23;9.95;;;4.40;;
49722;SDS011;43484;43.608;1.458;2023-06-14T03:30:50;7.75;;;4.60;;
49722;SDS011;43484;43.608;1.458;2023-06-14T03:33:16;6.80;;;4.85;;
49722;SDS011;43484;43.608;1.458;2023-06-14T03:35:43;8.63;;;5.35;;
49722;SDS011;43484;43.608;1.458;2023-06-14T03:38:10;6.57;;;4.47;;
49722;SDS011;43484;43.608;1.458;2023-06-14T03:40:36;5.03;;;4.50;;
49722;SDS011;43484;43.608;1.458;2023-06-14T03:43:03;8.18;;;4.57;;
49722;SDS011;43484;43.608;1.458;2023-06-14T03:45:30;6.57;;;5.97;;
49722;SDS011;43484;43.608;1.458;2023-06-14T03:47:56;8.25;;;5.38;;
49722;SDS011;43484;43.608;1.458;2023-06-14T03:50:23;16.05;;;5.35;;
49722;SDS011;43484;43.608;1.458;2023-06-14T03:52:50;6.32;;;5.70;;
49722;SDS011;43484;43.608;1.458;2023-06-14T03:55:16;5.68;;;5.15;;
49722;SDS011;43484;43.608;1.458;2023-06-14T03:57:46;8.60;;;5.55;;
49722;SDS011;43484;43.608;1.458;2023-06-14T04:00:13;10.20;;;5.43;;
49722;SDS011;43484;43.608;1.458;2023-06-14T04:02:40;14.15;;;5.60;;
49722;SDS011;43484;43.608;1.458;2023-06-14T04:05:07;6.82;;;6.13;;
49722;SDS011;43484;43.608;1.458;2023-06-14T04:07:35;8.32;;;6.65;;
49722;SDS011;43484;43.608;1.458;2023-06-14T04:10:06;9.50;;;6.15;;
49722;SDS011;43484;43.608;1.458;2023-06-14T04:12:37;10.32;;;6.20;;
49722;SDS011;43484;43.608;1.458;2023-06-14T04:15:03;6.32;;;5.60;;
49722;SDS011;43484;43.608;1.458;2023-06-14T04:17:45;11.10;;;7.40;;
49722;SDS011;43484;43.608;1.458;2023-06-14T04:20:12;10.35;;;7.18;;
49722;SDS011;43484;43.608;1.458;2023-06-14T04:22:39;12.10;;;7.15;;
49722;SDS011;43484;43.608;1.458;2023-06-14T04:25:07;14.45;;;7.43;;
49722;SDS011;43484;43.608;1.458;2023-06-14T04:27:34;8.90;;;6.53;;
49722;SDS011;43484;43.608;1.458;2023-06-14T04:30:02;13.18;;;7.53;;
49722;SDS011;43484;43.608;1.458;2023-06-14T04:32:30;9.45;;;7.15;;
49722;SDS011;43484;43.608;1.458;2023-06-14T04:35:00;11.90;;;8.60;;
49722;SDS011;43484;43.608;1.458;2023-06-14T04:37:30;10.98;;;8.57;;
49722;SDS011;43484;43.608;1.458;2023-06-14T04:39:57;10.70;;;7.32;;
49722;SDS011;43484;43.608;1.458;2023-06-14T04:42:24;13.10;;;9.95;;
49722;SDS011;43484;43.608;1.458;2023-06-14T04:44:51;15.65;;;9.85;;
49722;SDS011;43484;43.608;1.458;2023-06-14T04:47:22;14.75;;;9.63;;
49722;SDS011;43484;43.608;1.458;2023-06-14T04:49:48;16.00;;;10.05;;
49722;SDS011;43484;43.608;1.458;2023-06-14T04:52:16;15.23;;;9.80;;
49722;SDS011;43484;43.608;1.458;2023-06-14T04:54:43;16.67;;;10.23;;
49722;SDS011;43484;43.608;1.458;2023-06-14T04:57:10;20.52;;;10.50;;
49722;SDS011;43484;43.608;1.458;2023-06-14T04:59:40;16.17;;;11.60;;
49722;SDS011;43484;43.608;1.458;2023-06-14T05:02:07;22.83;;;11.27;;
49722;SDS011;43484;43.608;1.458;2023-06-14T05:04:35;14.70;;;10.57;;
49722;SDS011;43484;43.608;1.458;2023-06-14T05:07:08;18.08;;;10.57;;
49722;SDS011;43484;43.608;1.458;2023-06-14T05:09:35;21.55;;;12.05;;
49722;SDS011;43484;43.608;1.458;2023-06-14T05:12:03;22.23;;;11.77;;
49722;SDS011;43484;43.608;1.458;2023-06-14T05:14:30;18.42;;;11.30;;
49722;SDS011;43484;43.608;1.458;2023-06-14T05:16:57;26.55;;;12.93;;
49722;SDS011;43484;43.608;1.458;2023-06-14T05:19:23;28.85;;;13.27;;
49722;SDS011;43484;43.608;1.458;2023-06-14T05:21:50;21.90;;;12.57;;
49722;SDS011;43484;43.608;1.458;2023-06-14T05:24:17;19.77;;;12.48;;
49722;SDS011;43484;43.608;1.458;2023-06-14T05:26:44;22.83;;;12.63;;
49722;SDS011;43484;43.608;1.458;2023-06-14T05:29:11;21.85;;;13.15;;
49722;SDS011;43484;43.608;1.458;2023-06-14T05:31:38;23.60;;;13.40;;
49722;SDS011;43484;43.608;1.458;2023-06-14T05:34:05;22.40;;;13.38;;
49722;SDS011;43484;43.608;1.458;2023-06-14T05:36:32;20.27;;;13.35;;
49722;SDS011;43484;43.608;1.458;2023-06-14T05:38:58;26.55;;;13.05;;
49722;SDS011;43484;43.608;1.458;2023-06-14T05:41:26;19.15;;;13.77;;
49722;SDS011;43484;43.608;1.458;2023-06-14T05:43:54;21.23;;;13.73;;
49722;SDS011;43484;43.608;1.458;2023-06-14T05:46:22;22.02;;;13.25;;
49722;SDS011;43484;43.608;1.458;2023-06-14T05:48:51;24.50;;;14.40;;
49722;SDS011;43484;43.608;1.458;2023-06-14T05:51:18;20.60;;;13.45;;
49722;SDS011;43484;43.608;1.458;2023-06-14T05:53:45;19.50;;;13.73;;
49722;SDS011;43484;43.608;1.458;2023-06-14T05:56:15;28.48;;;14.25;;
49722;SDS011;43484;43.608;1.458;2023-06-14T05:58:44;17.98;;;12.82;;
49722;SDS011;43484;43.608;1.458;2023-06-14T06:01:12;25.27;;;13.88;;
49722;SDS011;43484;43.608;1.458;2023-06-14T06:03:39;19.48;;;13.63;;
49722;SDS011;43484;43.608;1.458;2023-06-14T06:06:06;29.63;;;14.82;;
49722;SDS011;43484;43.608;1.458;2023-06-14T06:08:34;26.88;;;14.45;;
49722;SDS011;43484;43.608;1.458;2023-06-14T06:11:01;23.15;;;15.68;;
49722;SDS011;43484;43.608;1.458;2023-06-14T06:13:28;19.80;;;14.73;;
49722;SDS011;43484;43.608;1.458;2023-06-14T06:15:54;26.08;;;14.18;;
49722;SDS011;43484;43.608;1.458;2023-06-14T06:18:22;24.33;;;14.43;;
49722;SDS011;43484;43.608;1.458;2023-06-14T06:20:49;24.55;;;14.57;;
49722;SDS011;43484;43.608;1.458;2023-06-14T06:23:16;19.15;;;13.20;;
49722;SDS011;43484;43.608;1.458;2023-06-14T06:25:43;17.83;;;12.52;;
49722;SDS011;43484;43.608;1.458;2023-06-14T06:28:10;20.17;;;13.23;;
49722;SDS011;43484;43.608;1.458;2023-06-14T06:30:37;29.30;;;14.95;;
49722;SDS011;43484;43.608;1.458;2023-06-14T06:33:04;16.98;;;13.68;;
49722;SDS011;43484;43.608;1.458;2023-06-14T06:35:32;26.20;;;14.45;;
49722;SDS011;43484;43.608;1.458;2023-06-14T06:37:59;26.65;;;13.75;;
49722;SDS011;43484;43.608;1.458;2023-06-14T06:40:27;79.47;;;14.55;;
49722;SDS011;43484;43.608;1.458;2023-06-14T06:42:54;23.58;;;13.55;;
49722;SDS011;43484;43.608;1.458;2023-06-14T06:45:21;26.00;;;14.40;;
49722;SDS011;43484;43.608;1.458;2023-06-14T06:47:51;20.83;;;13.80;;
49722;SDS011;43484;43.608;1.458;2023-06-14T06:50:18;22.55;;;14.05;;
49722;SDS011;43484;43.608;1.458;2023-06-14T06:52:46;19.60;;;14.13;;
49722;SDS011;43484;43.608;1.458;2023-06-14T06:55:13;24.48;;;14.18;;
49722;SDS011;43484;43.608;1.458;2023-06-14T06:57:40;23.70;;;13.63;;
49722;SDS011;43484;43.608;1.458;2023-06-14T07:00:07;22.17;;;13.60;;
49722;SDS011;43484;43.608;1.458;2023-06-14T07:02:36;19.67;;;12.75;;
49722;SDS011;43484;43.608;1.458;2023-06-14T07:05:03;26.05;;;13.77;;
49722;SDS011;43484;43.608;1.458;2023-06-14T07:07:31;21.17;;;12.20;;
49722;SDS011;43484;43.608;1.458;2023-06-14T07:09:57;27.25;;;13.05;;
49722;SDS011;43484;43.608;1.458;2023-06-14T07:12:25;27.77;;;14.02;;
49722;SDS011;43484;43.608;1.458;2023-06-14T07:14:51;18.10;;;13.18;;
49722;SDS011;43484;43.608;1.458;2023-06-14T07:17:18;32.35;;;13.32;;
49722;SDS011;43484;43.608;1.458;2023-06-14T07:19:45;24.60;;;13.65;;
49722;SDS011;43484;43.608;1.458;2023-06-14T07:22:12;28.70;;;12.82;;
49722;SDS011;43484;43.608;1.458;2023-06-14T07:24:39;28.52;;;14.73;;
49722;SDS011;43484;43.608;1.458;2023-06-14T07:27:07;26.05;;;14.52;;
49722;SDS011;43484;43.608;1.458;2023-06-14T07:29:34;23.10;;;13.55;;
49722;SDS011;43484;43.608;1.458;2023-06-14T07:32:01;22.58;;;14.20;;
49722;SDS011;43484;43.608;1.458;2023-06-14T07:34:27;24.23;;;14.55;;
49722;SDS011;43484;43.608;1.458;2023-06-14T07:36:54;19.95;;;12.85;;
49722;SDS011;43484;43.608;1.458;2023-06-14T07:39:21;25.13;;;13.23;;
49722;SDS011;43484;43.608;1.458;2023-06-14T07:41:48;20.88;;;13.35;;
49722;SDS011;43484;43.608;1.458;2023-06-14T07:44:15;19.95;;;13.13;;
49722;SDS011;43484;43.608;1.458;2023-06-14T07:46:42;31.85;;;14.05;;
49722;SDS011;43484;43.608;1.458;2023-06-14T07:49:09;23.27;;;13.48;;
49722;SDS011;43484;43.608;1.458;2023-06-14T07:51:36;22.25;;;12.50;;
49722;SDS011;43484;43.608;1.458;2023-06-14T07:54:04;18.00;;;11.90;;
49722;SDS011;43484;43.608;1.458;2023-06-14T07:56:31;22.65;;;12.82;;
49722;SDS011;43484;43.608;1.458;2023-06-14T07:58:57;22.23;;;12.40;;
49722;SDS011;43484;43.608;1.458;2023-06-14T08:01:24;18.27;;;12.23;;
49722;SDS011;43484;43.608;1.458;2023-06-14T08:03:52;20.70;;;11.85;;
49722;SDS011;43484;43.608;1.458;2023-06-14T08:06:18;17.55;;;10.73;;
49722;SDS011;43484;43.608;1.458;2023-06-14T08:08:45;30.10;;;11.45;;
49722;SDS011;43484;43.608;1.458;2023-06-14T08:11:12;18.05;;;11.82;;
49722;SDS011;43484;43.608;1.458;2023-06-14T08:13:38;16.50;;;10.60;;
49722;SDS011;43484;43.608;1.458;2023-06-14T08:16:05;21.88;;;11.02;;
49722;SDS011;43484;43.608;1.458;2023-06-14T08:18:32;25.17;;;12.18;;
49722;SDS011;43484;43.608;1.458;2023-06-14T08:20:58;15.02;;;10.65;;
49722;SDS011;43484;43.608;1.458;2023-06-14T08:23:25;26.25;;;11.70;;
49722;SDS011;43484;43.608;1.458;2023-06-14T08:25:52;20.70;;;11.30;;
49722;SDS011;43484;43.608;1.458;2023-06-14T08:28:19;19.48;;;10.32;;
49722;SDS011;43484;43.608;1.458;2023-06-14T08:30:45;30.25;;;11.00;;
49722;SDS011;43484;43.608;1.458;2023-06-14T08:33:12;19.13;;;11.50;;
49722;SDS011;43484;43.608;1.458;2023-06-14T08:35:43;19.30;;;10.38;;
49722;SDS011;43484;43.608;1.458;2023-06-14T08:38:10;17.48;;;10.82;;
49722;SDS011;43484;43.608;1.458;2023-06-14T08:40:38;23.10;;;11.55;;
49722;SDS011;43484;43.608;1.458;2023-06-14T08:43:08;15.18;;;10.27;;
49722;SDS011;43484;43.608;1.458;2023-06-14T08:45:35;17.83;;;10.52;;
49722;SDS011;43484;43.608;1.458;2023-06-14T08:48:02;21.52;;;10.70;;
49722;SDS011;43484;43.608;1.458;2023-06-14T08:50:30;23.20;;;10.75;;
49722;SDS011;43484;43.608;1.458;2023-06-14T08:53:00;22.98;;;11.82;;
49722;SDS011;43484;43.608;1.458;2023-06-14T08:55:30;18.92;;;11.02;;
49722;SDS011;43484;43.608;1.458;2023-06-14T08:58:02;25.38;;;10.20;;
49722;SDS011;43484;43.608;1.458;2023-06-14T09:00:30;18.08;;;10.27;;
49722;SDS011;43484;43.608;1.458;2023-06-14T09:02:59;23.27;;;10.25;;
49722;SDS011;43484;43.608;1.458;2023-06-14T09:05:26;18.13;;;10.35;;
49722;SDS011;43484;43.608;1.458;2023-06-14T09:07:53;22.05;;;10.80;;
49722;SDS011;43484;43.608;1.458;2023-06-14T09:10:21;16.02;;;9.35;;
49722;SDS011;43484;43.608;1.458;2023-06-14T09:12:49;18.58;;;10.63;;
49722;SDS011;43484;43.608;1.458;2023-06-14T09:15:17;46.50;;;12.77;;
49722;SDS011;43484;43.608;1.458;2023-06-14T09:17:44;19.13;;;10.43;;
49722;SDS011;43484;43.608;1.458;2023-06-14T09:20:11;40.13;;;12.93;;
49722;SDS011;43484;43.608;1.458;2023-06-14T09:22:45;21.85;;;10.48;;
49722;SDS011;43484;43.608;1.458;2023-06-14T09:25:12;23.05;;;9.60;;
49722;SDS011;43484;43.608;1.458;2023-06-14T09:27:58;26.13;;;10.20;;
49722;SDS011;43484;43.608;1.458;2023-06-14T09:30:25;19.98;;;9.10;;
49722;SDS011;43484;43.608;1.458;2023-06-14T09:32:52;21.90;;;9.88;;
49722;SDS011;43484;43.608;1.458;2023-06-14T09:35:20;18.42;;;10.02;;
49722;SDS011;43484;43.608;1.458;2023-06-14T09:37:47;32.80;;;10.10;;
49722;SDS011;43484;43.608;1.458;2023-06-14T09:40:13;20.50;;;9.82;;
49722;SDS011;43484;43.608;1.458;2023-06-14T09:42:47;27.45;;;10.10;;
49722;SDS011;43484;43.608;1.458;2023-06-14T09:45:14;21.75;;;10.15;;
49722;SDS011;43484;43.608;1.458;2023-06-14T09:47:46;14.40;;;9.05;;
49722;SDS011;43484;43.608;1.458;2023-06-14T09:50:31;17.63;;;9.43;;
49722;SDS011;43484;43.608;1.458;2023-06-14T09:52:59;17.88;;;9.82;;
49722;SDS011;43484;43.608;1.458;2023-06-14T09:55:30;21.85;;;10.55;;
49722;SDS011;43484;43.608;1.458;2023-06-14T09:58:00;24.20;;;9.88;;
49722;SDS011;43484;43.608;1.458;2023-06-14T10:00:31;16.10;;;8.52;;
49722;SDS011;43484;43.608;1.458;2023-06-14T10:03:21;17.42;;;8.85;;
49722;SDS011;43484;43.608;1.458;2023-06-14T10:05:50;16.27;;;9.23;;
49722;SDS011;43484;43.608;1.458;2023-06-14T10:08:18;19.52;;;8.57;;
49722;SDS011;43484;43.608;1.458;2023-06-14T10:10:51;22.92;;;9.35;;
49722;SDS011;43484;43.608;1.458;2023-06-14T10:13:18;20.67;;;9.15;;
49722;SDS011;43484;43.608;1.458;2023-06-14T10:15:51;17.13;;;8.70;;
49722;SDS011;43484;43.608;1.458;2023-06-14T10:18:43;16.25;;;8.10;;
49722;SDS011;43484;43.608;1.458;2023-06-14T10:24:13;17.55;;;8.60;;
49722;SDS011;43484;43.608;1.458;2023-06-14T10:26:53;13.50;;;8.00;;
49722;SDS011;43484;43.608;1.458;2023-06-14T10:29:25;17.23;;;8.70;;
49722;SDS011;43484;43.608;1.458;2023-06-14T10:31:56;20.52;;;9.25;;
49722;SDS011;43484;43.608;1.458;2023-06-14T10:34:27;12.05;;;8.30;;
49722;SDS011;43484;43.608;1.458;2023-06-14T10:37:02;17.42;;;8.73;;
49722;SDS011;43484;43.608;1.458;2023-06-14T10:39:41;17.17;;;8.65;;
49722;SDS011;43484;43.608;1.458;2023-06-14T10:42:08;18.10;;;8.70;;
49722;SDS011;43484;43.608;1.458;2023-06-14T10:44:40;18.70;;;8.48;;
49722;SDS011;43484;43.608;1.458;2023-06-14T10:47:08;16.95;;;8.80;;
49722;SDS011;43484;43.608;1.458;2023-06-14T10:49:37;12.23;;;8.00;;
49722;SDS011;43484;43.608;1.458;2023-06-14T10:52:15;15.93;;;8.43;;
49722;SDS011;43484;43.608;1.458;2023-06-14T10:55:04;18.73;;;8.80;;
49722;SDS011;43484;43.608;1.458;2023-06-14T10:57:51;13.63;;;7.78;;
49722;SDS011;43484;43.608;1.458;2023-06-14T11:00:22;13.75;;;8.13;;
49722;SDS011;43484;43.608;1.458;2023-06-14T11:05:59;14.25;;;7.25;;
49722;SDS011;43484;43.608;1.458;2023-06-14T11:08:40;17.73;;;8.27;;
49722;SDS011;43484;43.608;1.458;2023-06-14T11:11:12;17.83;;;7.32;;
49722;SDS011;43484;43.608;1.458;2023-06-14T11:13:41;11.70;;;7.13;;
49722;SDS011;43484;43.608;1.458;2023-06-14T11:16:11;56.58;;;10.57;;
49722;SDS011;43484;43.608;1.458;2023-06-14T11:18:40;11.88;;;7.53;;
49722;SDS011;43484;43.608;1.458;2023-06-14T11:21:07;40.00;;;9.77;;
49722;SDS011;43484;43.608;1.458;2023-06-14T11:23:35;16.00;;;8.18;;
49722;SDS011;43484;43.608;1.458;2023-06-14T11:26:02;18.02;;;7.65;;
49722;SDS011;43484;43.608;1.458;2023-06-14T11:28:37;26.67;;;7.90;;
49722;SDS011;43484;43.608;1.458;2023-06-14T11:31:05;21.83;;;7.70;;
49722;SDS011;43484;43.608;1.458;2023-06-14T11:33:32;18.17;;;7.95;;
49722;SDS011;43484;43.608;1.458;2023-06-14T11:36:03;159.85;;;20.23;;
49722;SDS011;43484;43.608;1.458;2023-06-14T11:38:34;16.52;;;8.00;;
49722;SDS011;43484;43.608;1.458;2023-06-14T11:41:03;19.90;;;7.63;;
49722;SDS011;43484;43.608;1.458;2023-06-14T11:43:29;23.10;;;7.82;;
49722;SDS011;43484;43.608;1.458;2023-06-14T11:45:58;26.85;;;8.93;;
49722;SDS011;43484;43.608;1.458;2023-06-14T11:48:51;15.40;;;7.97;;
49722;SDS011;43484;43.608;1.458;2023-06-14T11:51:18;16.50;;;7.15;;
49722;SDS011;43484;43.608;1.458;2023-06-14T11:53:45;17.90;;;6.93;;
49722;SDS011;43484;43.608;1.458;2023-06-14T11:56:12;58.20;;;11.02;;
49722;SDS011;43484;43.608;1.458;2023-06-14T11:58:43;22.15;;;7.65;;
49722;SDS011;43484;43.608;1.458;2023-06-14T12:01:13;15.55;;;6.93;;
49722;SDS011;43484;43.608;1.458;2023-06-14T12:03:46;19.80;;;6.97;;
49722;SDS011;43484;43.608;1.458;2023-06-14T12:06:14;11.20;;;6.80;;
49722;SDS011;43484;43.608;1.458;2023-06-14T12:08:42;14.38;;;7.47;;
49722;SDS011;43484;43.608;1.458;2023-06-14T12:11:11;15.02;;;7.22;;
49722;SDS011;43484;43.608;1.458;2023-06-14T12:13:41;15.10;;;6.57;;
49722;SDS011;43484;43.608;1.458;2023-06-14T12:16:09;16.38;;;7.43;;
49722;SDS011;43484;43.608;1.458;2023-06-14T12:18:37;12.02;;;6.47;;
49722;SDS011;43484;43.608;1.458;2023-06-14T12:21:05;19.15;;;7.13;;
49722;SDS011;43484;43.608;1.458;2023-06-14T12:26:08;13.30;;;6.65;;
49722;SDS011;43484;43.608;1.458;2023-06-14T12:28:37;10.18;;;6.80;;
49722;SDS011;43484;43.608;1.458;2023-06-14T12:31:06;14.63;;;7.53;;
49722;SDS011;43484;43.608;1.458;2023-06-14T12:33:33;11.52;;;7.18;;
49722;SDS011;43484;43.608;1.458;2023-06-14T12:36:00;12.43;;;6.70;;
49722;SDS011;43484;43.608;1.458;2023-06-14T12:38:29;15.85;;;6.75;;
49722;SDS011;43484;43.608;1.458;2023-06-14T12:40:56;13.65;;;6.70;;
49722;SDS011;43484;43.608;1.458;2023-06-14T12:43:24;16.08;;;6.78;;
49722;SDS011;43484;43.608;1.458;2023-06-14T12:45:50;14.68;;;7.22;;
49722;SDS011;43484;43.608;1.458;2023-06-14T12:48:17;11.60;;;6.97;;
49722;SDS011;43484;43.608;1.458;2023-06-14T12:50:44;11.55;;;6.55;;
49722;SDS011;43484;43.608;1.458;2023-06-14T12:53:11;16.10;;;6.43;;
49722;SDS011;43484;43.608;1.458;2023-06-14T12:55:38;18.83;;;7.07;;
49722;SDS011;43484;43.608;1.458;2023-06-14T12:58:05;9.95;;;6.47;;
49722;SDS011;43484;43.608;1.458;2023-06-14T13:00:36;11.52;;;6.78;;
49722;SDS011;43484;43.608;1.458;2023-06-14T13:03:02;16.38;;;6.80;;
49722;SDS011;43484;43.608;1.458;2023-06-14T13:05:29;10.60;;;6.07;;
49722;SDS011;43484;43.608;1.458;2023-06-14T13:08:00;11.85;;;6.20;;
49722;SDS011;43484;43.608;1.458;2023-06-14T13:10:27;16.35;;;7.00;;
49722;SDS011;43484;43.608;1.458;2023-06-14T13:12:54;18.73;;;7.32;;
49722;SDS011;43484;43.608;1.458;2023-06-14T13:15:21;13.50;;;6.10;;
49722;SDS011;43484;43.608;1.458;2023-06-14T13:17:47;8.40;;;5.75;;
49722;SDS011;43484;43.608;1.458;2023-06-14T13:20:15;12.77;;;6.53;;
49722;SDS011;43484;43.608;1.458;2023-06-14T13:22:45;15.88;;;6.45;;
49722;SDS011;43484;43.608;1.458;2023-06-14T13:25:12;18.92;;;6.82;;
49722;SDS011;43484;43.608;1.458;2023-06-14T13:27:39;13.70;;;7.05;;
49722;SDS011;43484;43.608;1.458;2023-06-14T13:30:06;16.75;;;6.82;;
49722;SDS011;43484;43.608;1.458;2023-06-14T13:32:33;10.88;;;5.82;;
49722;SDS011;43484;43.608;1.458;2023-06-14T13:35:00;9.25;;;6.15;;
49722;SDS011;43484;43.608;1.458;2023-06-14T13:37:27;9.02;;;5.75;;
49722;SDS011;43484;43.608;1.458;2023-06-14T13:39:54;14.23;;;6.53;;
49722;SDS011;43484;43.608;1.458;2023-06-14T13:42:21;12.35;;;7.28;;
49722;SDS011;43484;43.608;1.458;2023-06-14T13:44:48;11.93;;;6.78;;
49722;SDS011;43484;43.608;1.458;2023-06-14T13:47:14;15.25;;;6.30;;
49722;SDS011;43484;43.608;1.458;2023-06-14T13:49:42;13.07;;;6.63;;
49722;SDS011;43484;43.608;1.458;2023-06-14T13:52:08;10.75;;;6.68;;
49722;SDS011;43484;43.608;1.458;2023-06-14T13:54:35;12.77;;;6.32;;
49722;SDS011;43484;43.608;1.458;2023-06-14T13:57:02;12.35;;;6.53;;
49722;SDS011;43484;43.608;1.458;2023-06-14T13:59:29;10.77;;;6.63;;
49722;SDS011;43484;43.608;1.458;2023-06-14T14:01:57;16.38;;;6.95;;
49722;SDS011;43484;43.608;1.458;2023-06-14T14:04:24;13.20;;;6.45;;
49722;SDS011;43484;43.608;1.458;2023-06-14T14:06:50;15.60;;;6.90;;
49722;SDS011;43484;43.608;1.458;2023-06-14T14:09:17;10.93;;;6.72;;
49722;SDS011;43484;43.608;1.458;2023-06-14T14:11:44;10.77;;;6.72;;
49722;SDS011;43484;43.608;1.458;2023-06-14T14:14:10;12.60;;;6.22;;
49722;SDS011;43484;43.608;1.458;2023-06-14T14:16:37;8.57;;;5.75;;
49722;SDS011;43484;43.608;1.458;2023-06-14T14:19:04;18.65;;;6.22;;
49722;SDS011;43484;43.608;1.458;2023-06-14T14:21:32;8.52;;;5.82;;
49722;SDS011;43484;43.608;1.458;2023-06-14T14:23:59;15.48;;;6.43;;
49722;SDS011;43484;43.608;1.458;2023-06-14T14:26:26;8.75;;;6.18;;
49722;SDS011;43484;43.608;1.458;2023-06-14T14:28:53;12.88;;;6.70;;
49722;SDS011;43484;43.608;1.458;2023-06-14T14:31:19;9.60;;;5.60;;
49722;SDS011;43484;43.608;1.458;2023-06-14T14:33:46;11.82;;;6.10;;
49722;SDS011;43484;43.608;1.458;2023-06-14T14:36:13;10.38;;;5.88;;
49722;SDS011;43484;43.608;1.458;2023-06-14T14:38:40;19.52;;;6.55;;
49722;SDS011;43484;43.608;1.458;2023-06-14T14:41:06;15.52;;;6.32;;
49722;SDS011;43484;43.608;1.458;2023-06-14T14:43:34;12.85;;;6.38;;
49722;SDS011;43484;43.608;1.458;2023-06-14T14:46:00;12.18;;;6.10;;
49722;SDS011;43484;43.608;1.458;2023-06-14T14:48:27;14.65;;;6.85;;
49722;SDS011;43484;43.608;1.458;2023-06-14T14:50:54;10.73;;;6.32;;
49722;SDS011;43484;43.608;1.458;2023-06-14T14:53:21;12.30;;;6.85;;